COUO2: Red River nr Courtney, OK

Data processed at Thu May 23 2019 23:50


All information presented herein is the property of the government of the United States of America and may be revised or deleted at any time without prior notice.
Dissemination of this information without the expressed written consent of the Public Affairs Office, Tulsa District U.S. Army Corps of Engineers is strictly prohibited.
These data are gathered electronically and, as presented, have not undergone any form of quality control. These data are not guaranteed to be valid or correct.
Go to home page.
Go to station list.
Go to home page.

Upstream stations:

Downstream station:
Previous Day
Next Day
Current Day
    
SHEF ID:       COUO2     Red River nr Courtney, OK
STATION TYPE:  

               PRECIP     STAGE  RIV-FLOW  BAT-LOAD
                   in        ft       cfs      volt
              Ccp-Rev   Ccp-Rev   Ccp-Rev   Ccp-Rev
(US/Central)
05/23 00:00      ----     21.70     19389     12.81
05/23 01:00      ----     21.69     19332     12.81
05/23 02:00      ----     21.78     19853     12.81
05/23 03:00      ----     21.74     19620     12.81
05/23 04:00      ----     21.65     19104     12.81
05/23 05:00      ----     21.55     18542     12.73
05/23 06:00      ----     21.62     18934     12.73
05/23 07:00      ----     21.45     17992     12.73
05/23 08:00      ----     21.43     17884     12.73
05/23 09:00      ----     21.36     17508     13.21
05/23 10:00      ----     21.26     16981     13.44
05/23 11:00      ----     21.25     16929     13.53
05/23 12:00      ----     21.13     16417     13.44
05/23 13:00      ----     21.04     16192     13.53
05/23 14:00      ----     20.95     15969     13.44
05/23 15:00      ----     20.94     15944     13.53
05/23 16:00      ----     20.79     15575     13.53
05/23 17:00      ----     20.77     15526     13.44
05/23 18:00      ----     20.62     15162     13.44
05/23 19:00      ----     20.44     14730     13.37
05/23 20:00      ----     20.42     14682     13.21
05/23 21:00      ----     20.28     14351     12.97
05/23 22:00      ----     20.35     14517     12.81
05/23 23:00      ----     20.28     14351     12.81